createdAt,value
2018-02-19T00:01:12.532Z,1.10
2018-02-19T00:03:40.092Z,1.00
2018-02-19T00:06:07.631Z,1.00
2018-02-19T00:08:35.185Z,1.00
2018-02-19T00:11:02.741Z,1.00
2018-02-19T00:13:30.290Z,0.90
2018-02-19T00:15:57.907Z,0.90
2018-02-19T00:18:26.470Z,0.80
2018-02-19T00:20:54.045Z,0.90
2018-02-19T00:23:21.611Z,0.90
2018-02-19T00:25:49.175Z,0.90
2018-02-19T00:28:16.736Z,0.90
2018-02-19T00:30:44.399Z,0.90
2018-02-19T00:33:12.062Z,0.90
2018-02-19T00:35:39.630Z,0.90
2018-02-19T00:38:07.190Z,0.90
2018-02-19T00:40:34.750Z,0.90
2018-02-19T00:43:02.306Z,0.90
2018-02-19T00:45:29.966Z,0.90
2018-02-19T00:47:57.527Z,0.90
2018-02-19T00:50:25.093Z,0.90
2018-02-19T00:52:52.670Z,0.90
2018-02-19T00:55:20.995Z,0.80
2018-02-19T00:57:48.543Z,0.80
2018-02-19T01:00:16.227Z,0.90
2018-02-19T01:02:43.760Z,0.90
2018-02-19T01:05:11.368Z,0.80
2018-02-19T01:07:38.920Z,0.80
2018-02-19T01:10:06.477Z,0.90
2018-02-19T01:12:34.042Z,0.80
2018-02-19T01:15:01.721Z,0.80
2018-02-19T01:17:29.374Z,0.80
2018-02-19T01:19:56.920Z,0.80
2018-02-19T01:22:24.517Z,0.80
2018-02-19T01:24:52.070Z,0.80
2018-02-19T01:27:19.722Z,0.80
2018-02-19T01:29:47.382Z,0.70
2018-02-19T01:32:14.941Z,0.70
2018-02-19T01:34:42.507Z,0.70
2018-02-19T01:37:10.071Z,0.70
2018-02-19T01:39:37.722Z,0.70
2018-02-19T01:42:05.276Z,0.70
2018-02-19T01:44:32.834Z,0.70
2018-02-19T01:47:00.389Z,0.70
2018-02-19T01:49:27.979Z,0.60
2018-02-19T01:51:57.077Z,0.60
2018-02-19T01:54:24.637Z,0.60
2018-02-19T01:56:52.187Z,0.70
2018-02-19T01:59:19.863Z,0.60
2018-02-19T02:01:47.415Z,0.60
2018-02-19T02:04:14.962Z,0.60
2018-02-19T02:06:42.520Z,0.70
2018-02-19T02:09:10.123Z,0.70
2018-02-19T02:11:37.763Z,0.70
2018-02-19T02:14:05.318Z,0.70
2018-02-19T02:16:32.862Z,0.70
2018-02-19T02:19:00.423Z,0.70
2018-02-19T02:21:27.985Z,0.70
2018-02-19T02:23:55.537Z,0.70
2018-02-19T02:26:23.101Z,0.70
2018-02-19T02:28:50.661Z,0.70
2018-02-19T02:31:18.221Z,0.70
2018-02-19T02:33:45.780Z,0.60
2018-02-19T02:36:13.354Z,0.70
2018-02-19T02:38:40.905Z,0.70
2018-02-19T02:41:08.485Z,0.70
2018-02-19T02:43:36.043Z,0.70
2018-02-19T02:46:03.608Z,0.70
2018-02-19T02:48:31.166Z,0.70
2018-02-19T02:50:58.735Z,0.70
2018-02-19T02:53:26.295Z,0.70
2018-02-19T02:55:53.847Z,0.70
2018-02-19T02:58:21.408Z,0.70
2018-02-19T03:00:48.943Z,0.70
2018-02-19T03:03:16.505Z,0.70
2018-02-19T03:05:44.057Z,0.70
2018-02-19T03:08:11.627Z,0.70
2018-02-19T03:10:39.186Z,0.60
2018-02-19T03:13:06.748Z,0.70
2018-02-19T03:15:34.307Z,0.60
2018-02-19T03:18:01.840Z,0.60
2018-02-19T03:20:30.179Z,0.60
2018-02-19T03:22:57.826Z,0.60
2018-02-19T03:25:25.413Z,0.60
2018-02-19T03:27:53.074Z,0.60
2018-02-19T03:30:20.621Z,0.60
2018-02-19T03:32:48.189Z,0.60
2018-02-19T03:35:15.757Z,0.60
2018-02-19T03:37:43.290Z,0.60
2018-02-19T03:40:10.879Z,0.60
2018-02-19T03:42:38.442Z,0.60
2018-02-19T03:45:06.039Z,0.60
2018-02-19T03:47:33.579Z,0.70
2018-02-19T03:50:01.156Z,0.60
2018-02-19T03:52:29.482Z,0.60
2018-02-19T03:54:57.056Z,0.60
2018-02-19T03:57:24.717Z,0.60
2018-02-19T03:59:52.278Z,0.60
2018-02-19T04:02:19.838Z,0.60
2018-02-19T04:04:47.511Z,0.60
2018-02-19T04:07:15.165Z,0.60
2018-02-19T04:09:42.737Z,0.60
2018-02-19T04:12:11.077Z,0.60
2018-02-19T04:14:38.621Z,0.60
2018-02-19T04:17:06.187Z,0.60
2018-02-19T04:19:33.776Z,0.60
2018-02-19T04:22:02.279Z,0.60
2018-02-19T04:24:29.840Z,0.50
2018-02-19T04:26:57.480Z,0.50
2018-02-19T04:29:25.013Z,0.50
2018-02-19T04:31:52.626Z,0.40
2018-02-19T04:34:20.189Z,0.40
2018-02-19T04:36:47.749Z,0.40
2018-02-19T04:39:15.307Z,0.40
2018-02-19T04:41:42.906Z,0.40
2018-02-19T04:44:21.157Z,0.30
2018-02-19T04:46:51.336Z,0.30
2018-02-19T04:49:19.689Z,0.30
2018-02-19T04:51:48.008Z,0.30
2018-02-19T04:54:15.590Z,0.30
2018-02-19T04:56:43.137Z,0.30
2018-02-19T04:59:10.746Z,0.30
2018-02-19T05:01:38.303Z,0.30
2018-02-19T05:04:05.864Z,0.30
2018-02-19T05:06:33.418Z,0.30
2018-02-19T05:09:00.995Z,0.30
2018-02-19T05:11:28.554Z,0.30
2018-02-19T05:13:56.877Z,0.30
2018-02-19T05:16:24.466Z,0.30
2018-02-19T05:18:52.022Z,0.30
2018-02-19T05:21:19.598Z,0.30
2018-02-19T05:23:47.153Z,0.40
2018-02-19T05:26:14.722Z,0.30
2018-02-19T05:28:42.283Z,0.40
2018-02-19T05:31:09.849Z,0.40
2018-02-19T05:33:37.440Z,0.40
2018-02-19T05:36:05.756Z,0.40
2018-02-19T05:38:33.313Z,0.40
2018-02-19T05:41:00.902Z,0.40
2018-02-19T05:43:28.457Z,0.40
2018-02-19T05:45:56.017Z,0.40
2018-02-19T05:48:23.582Z,0.40
2018-02-19T05:50:51.137Z,0.40
2018-02-19T05:53:18.710Z,0.40
2018-02-19T05:55:46.256Z,0.40
2018-02-19T05:58:13.803Z,0.40
2018-02-19T06:00:41.350Z,0.40
2018-02-19T06:03:08.967Z,0.40
2018-02-19T06:05:36.527Z,0.40
2018-02-19T06:08:04.108Z,0.40
2018-02-19T06:10:31.648Z,0.40
2018-02-19T06:12:59.228Z,0.50
2018-02-19T06:15:26.861Z,0.40
2018-02-19T06:17:54.422Z,0.50
2018-02-19T06:20:21.982Z,0.40
2018-02-19T06:22:49.556Z,0.40
2018-02-19T06:25:17.233Z,0.40
2018-02-19T06:27:44.784Z,0.40
2018-02-19T06:30:12.456Z,0.40
2018-02-19T06:32:40.012Z,0.40
2018-02-19T06:35:09.101Z,0.40
2018-02-19T06:37:36.691Z,0.40
2018-02-19T06:40:05.024Z,0.40
2018-02-19T06:42:32.701Z,0.40
2018-02-19T06:45:00.288Z,0.40
2018-02-19T06:47:28.627Z,0.40
2018-02-19T06:49:56.307Z,0.40
2018-02-19T06:52:23.890Z,0.40
2018-02-19T06:54:52.237Z,0.50
2018-02-19T06:57:19.806Z,0.50
2018-02-19T06:59:47.357Z,0.50
2018-02-19T07:02:14.915Z,0.50
2018-02-19T07:04:42.589Z,0.50
2018-02-19T07:07:10.239Z,0.60
2018-02-19T07:09:37.805Z,0.60
2018-02-19T07:12:05.362Z,0.60
2018-02-19T07:14:32.921Z,0.60
2018-02-19T07:17:00.506Z,0.70
2018-02-19T07:19:28.062Z,0.70
2018-02-19T07:21:55.635Z,0.70
2018-02-19T07:24:23.287Z,0.80
2018-02-19T07:26:50.852Z,0.80
2018-02-19T07:29:18.415Z,0.90
2018-02-19T07:31:45.974Z,0.90
2018-02-19T07:34:13.597Z,0.90
2018-02-19T07:36:41.163Z,0.90
2018-02-19T07:39:08.724Z,1.00
2018-02-19T07:41:36.271Z,1.00
2018-02-19T07:44:03.862Z,1.00
2018-02-19T07:46:31.407Z,1.00
2018-02-19T07:48:58.982Z,1.00
2018-02-19T07:51:26.546Z,1.10
2018-02-19T07:53:54.097Z,1.10
2018-02-19T07:56:21.670Z,1.10
2018-02-19T07:58:49.256Z,1.20
2018-02-19T08:01:16.822Z,1.20
2018-02-19T08:03:49.605Z,1.30
2018-02-19T08:06:17.966Z,1.30
2018-02-19T08:08:46.317Z,1.30
2018-02-19T08:11:13.985Z,1.30
2018-02-19T08:13:41.577Z,1.30
2018-02-19T08:16:09.907Z,1.40
2018-02-19T08:18:37.476Z,1.40
2018-02-19T08:21:05.028Z,1.40
2018-02-19T08:23:32.619Z,1.40
2018-02-19T08:26:00.287Z,1.50
2018-02-19T08:28:27.859Z,1.50
2018-02-19T08:30:55.422Z,1.50
2018-02-19T08:33:23.073Z,1.60
2018-02-19T08:35:50.733Z,1.60
2018-02-19T08:38:18.402Z,1.60
2018-02-19T08:40:45.958Z,1.70
2018-02-19T08:43:13.507Z,1.70
2018-02-19T08:45:41.061Z,1.80
2018-02-19T08:48:08.614Z,1.80
2018-02-19T08:50:36.167Z,1.90
2018-02-19T08:53:04.601Z,2.00
2018-02-19T08:55:32.182Z,2.00
2018-02-19T08:58:00.491Z,2.10
2018-02-19T09:00:28.053Z,2.10
2018-02-19T09:02:55.608Z,2.20
2018-02-19T09:05:23.163Z,2.20
2018-02-19T09:07:50.757Z,2.30
2018-02-19T09:10:18.316Z,2.20
2018-02-19T09:12:45.860Z,2.30
2018-02-19T09:15:13.521Z,2.30
2018-02-19T09:17:41.105Z,2.30
2018-02-19T09:20:08.664Z,2.40
2018-02-19T09:22:36.222Z,2.40
2018-02-19T09:25:03.809Z,2.40
2018-02-19T09:27:32.874Z,2.50
2018-02-19T09:30:00.439Z,2.50
2018-02-19T09:32:28.016Z,2.60
2018-02-19T09:34:55.567Z,2.60
2018-02-19T09:37:23.116Z,2.70
2018-02-19T09:39:50.688Z,2.70
2018-02-19T09:42:18.367Z,2.70
2018-02-19T09:44:45.985Z,2.70
2018-02-19T09:47:13.544Z,2.70
2018-02-19T09:49:41.096Z,2.70
2018-02-19T09:52:08.797Z,2.80
2018-02-19T09:54:36.379Z,2.90
2018-02-19T09:57:05.498Z,2.90
2018-02-19T09:59:33.041Z,2.90
2018-02-19T10:02:00.615Z,2.90
2018-02-19T10:04:28.938Z,3.00
2018-02-19T10:06:56.497Z,3.00
2018-02-19T10:09:24.060Z,3.00
2018-02-19T10:11:51.634Z,3.00
2018-02-19T10:14:19.195Z,3.10
2018-02-19T10:16:46.762Z,3.20
2018-02-19T10:19:14.322Z,3.20
2018-02-19T10:21:41.881Z,3.30
2018-02-19T10:24:09.545Z,3.40
2018-02-19T10:26:37.147Z,3.40
2018-02-19T10:29:04.679Z,3.50
2018-02-19T10:31:32.247Z,3.50
2018-02-19T10:33:59.800Z,3.60
2018-02-19T10:36:27.357Z,3.50
2018-02-19T10:38:54.922Z,3.60
2018-02-19T10:41:23.990Z,3.60
2018-02-19T10:43:51.541Z,3.60
2018-02-19T10:46:19.724Z,3.60
2018-02-19T10:48:47.280Z,3.70
2018-02-19T10:51:14.848Z,3.70
2018-02-19T10:53:42.416Z,3.70
2018-02-19T10:56:09.982Z,3.80
2018-02-19T10:58:43.558Z,3.90
2018-02-19T11:01:11.141Z,3.90
2018-02-19T11:03:38.711Z,3.80
2018-02-19T11:06:06.297Z,3.80
2018-02-19T11:08:33.839Z,3.80
2018-02-19T11:11:01.485Z,3.80
2018-02-19T11:13:29.056Z,3.80
2018-02-19T11:15:56.726Z,3.80
2018-02-19T11:18:24.388Z,3.80
2018-02-19T11:20:52.036Z,3.80
2018-02-19T11:23:19.592Z,3.90
2018-02-19T11:25:47.146Z,3.90
2018-02-19T11:28:14.819Z,4.10
2018-02-19T11:30:42.385Z,4.10
2018-02-19T11:33:09.931Z,4.20
2018-02-19T11:35:37.498Z,4.20
2018-02-19T11:38:05.081Z,4.20
2018-02-19T11:40:32.629Z,4.20
2018-02-19T11:43:00.202Z,4.20
2018-02-19T11:45:27.766Z,4.30
2018-02-19T11:47:55.431Z,4.30
2018-02-19T11:50:22.997Z,4.40
2018-02-19T11:52:50.536Z,4.40
2018-02-19T11:55:18.105Z,4.30
2018-02-19T11:57:45.684Z,4.30
2018-02-19T12:00:13.246Z,4.30
2018-02-19T12:02:40.813Z,4.40
2018-02-19T12:05:09.149Z,4.50
2018-02-19T12:07:36.708Z,4.50
2018-02-19T12:10:04.246Z,4.60
2018-02-19T12:12:31.812Z,4.60
2018-02-19T12:14:59.465Z,4.60
2018-02-19T12:17:27.027Z,4.60
2018-02-19T12:19:55.356Z,4.60
2018-02-19T12:22:22.921Z,4.60
2018-02-19T12:24:53.451Z,4.70
2018-02-19T12:27:21.023Z,4.70
2018-02-19T12:29:48.593Z,4.80
2018-02-19T12:32:16.946Z,4.70
2018-02-19T12:34:44.533Z,4.70
2018-02-19T12:37:12.992Z,4.80
2018-02-19T12:39:40.531Z,4.80
2018-02-19T12:42:08.131Z,4.80
2018-02-19T12:44:35.764Z,4.70
2018-02-19T12:47:03.428Z,4.90
2018-02-19T12:49:31.009Z,4.80
2018-02-19T12:51:58.655Z,4.80
2018-02-19T12:54:26.189Z,4.80
2018-02-19T12:56:53.772Z,4.80
2018-02-19T12:59:21.332Z,4.80
2018-02-19T13:01:48.873Z,4.80
2018-02-19T13:04:16.432Z,4.80
2018-02-19T13:06:43.987Z,4.70
2018-02-19T13:09:11.578Z,4.80
2018-02-19T13:11:39.239Z,4.80
2018-02-19T13:14:06.793Z,4.70
2018-02-19T13:16:34.347Z,4.80
2018-02-19T13:19:02.043Z,4.90
2018-02-19T13:21:29.615Z,4.80
2018-02-19T13:23:57.183Z,4.90
2018-02-19T13:26:25.522Z,5.10
2018-02-19T13:28:53.088Z,5.00
2018-02-19T13:31:20.770Z,5.10
2018-02-19T13:33:48.338Z,5.20
2018-02-19T13:36:16.673Z,5.20
2018-02-19T13:38:44.229Z,5.20
2018-02-19T13:41:11.834Z,5.20
2018-02-19T13:43:40.181Z,5.20
2018-02-19T13:46:07.735Z,5.30
2018-02-19T13:48:35.300Z,5.40
2018-02-19T13:51:02.874Z,5.40
2018-02-19T13:53:30.431Z,5.50
2018-02-19T13:55:58.131Z,5.50
2018-02-19T13:58:25.763Z,5.60
2018-02-19T14:00:53.307Z,5.60
2018-02-19T14:03:20.879Z,5.60
2018-02-19T14:05:48.427Z,5.50
2018-02-19T14:08:15.984Z,5.50
2018-02-19T14:10:43.577Z,5.50
2018-02-19T14:13:11.168Z,5.60
2018-02-19T14:15:39.486Z,5.50
2018-02-19T14:18:07.098Z,5.40
2018-02-19T14:20:34.637Z,5.40
2018-02-19T14:23:02.202Z,5.40
2018-02-19T14:25:29.748Z,5.40
2018-02-19T14:27:57.323Z,5.40
2018-02-19T14:30:24.875Z,5.40
2018-02-19T14:32:52.545Z,5.40
2018-02-19T14:35:20.202Z,5.40
2018-02-19T14:37:47.763Z,5.40
2018-02-19T14:40:15.330Z,5.40
2018-02-19T14:42:42.986Z,5.40
2018-02-19T14:45:10.538Z,5.50
2018-02-19T14:47:38.211Z,5.50
2018-02-19T14:50:05.767Z,5.50
2018-02-19T14:52:34.160Z,5.50
2018-02-19T14:55:01.721Z,5.60
2018-02-19T14:57:29.395Z,5.60
2018-02-19T14:59:56.942Z,5.60
2018-02-19T15:02:24.520Z,5.60
2018-02-19T15:04:52.098Z,5.60
2018-02-19T15:07:20.436Z,5.60
2018-02-19T15:09:48.022Z,5.60
2018-02-19T15:12:15.573Z,5.60
2018-02-19T15:14:43.133Z,5.50
2018-02-19T15:17:11.466Z,5.50
2018-02-19T15:19:39.032Z,5.50
2018-02-19T15:22:06.605Z,5.50
2018-02-19T15:24:34.172Z,5.50
2018-02-19T15:27:01.717Z,5.50
2018-02-19T15:29:29.318Z,5.40
2018-02-19T15:31:56.895Z,5.40
2018-02-19T15:34:25.232Z,5.40
2018-02-19T15:36:52.811Z,5.40
2018-02-19T15:39:20.483Z,5.40
2018-02-19T15:41:49.543Z,5.40
2018-02-19T15:44:17.120Z,5.40
2018-02-19T15:46:44.693Z,5.40
2018-02-19T15:49:12.240Z,5.50
2018-02-19T15:51:39.819Z,5.40
2018-02-19T15:54:07.372Z,5.40
2018-02-19T15:56:35.035Z,5.40
2018-02-19T15:59:02.613Z,5.40
2018-02-19T16:01:30.185Z,5.30
2018-02-19T16:03:58.527Z,5.30
2018-02-19T16:06:26.073Z,5.30
2018-02-19T16:08:53.641Z,5.30
2018-02-19T16:11:21.211Z,5.30
2018-02-19T16:13:48.763Z,5.30
2018-02-19T16:16:16.366Z,5.20
2018-02-19T16:18:44.724Z,5.20
2018-02-19T16:21:12.290Z,5.20
2018-02-19T16:23:39.852Z,5.20
2018-02-19T16:26:08.175Z,5.20
2018-02-19T16:28:35.735Z,5.20
2018-02-19T16:31:03.293Z,5.10
2018-02-19T16:33:30.889Z,5.10
2018-02-19T16:35:58.434Z,5.00
2018-02-19T16:38:26.302Z,5.00
2018-02-19T16:40:53.868Z,5.00
2018-02-19T16:43:21.452Z,5.00
2018-02-19T16:45:49.116Z,5.00
2018-02-19T16:48:16.674Z,5.00
2018-02-19T16:50:44.229Z,4.90
2018-02-19T16:53:11.869Z,4.90
2018-02-19T16:55:39.433Z,4.90
2018-02-19T16:58:07.010Z,4.80
2018-02-19T17:00:34.691Z,4.80
2018-02-19T17:03:02.284Z,4.70
2018-02-19T17:05:30.609Z,4.70
2018-02-19T17:07:58.184Z,4.60
2018-02-19T17:10:25.737Z,4.60
2018-02-19T17:12:53.280Z,4.60
2018-02-19T17:15:20.852Z,4.60
2018-02-19T17:17:48.391Z,4.70
2018-02-19T17:20:15.968Z,4.70
2018-02-19T17:22:43.572Z,4.60
2018-02-19T17:25:11.132Z,4.60
2018-02-19T17:27:38.762Z,4.60
2018-02-19T17:30:06.333Z,4.60
2018-02-19T17:32:33.906Z,4.60
2018-02-19T17:35:06.172Z,4.60
2018-02-19T17:37:33.753Z,4.60
2018-02-19T17:40:02.093Z,4.50
2018-02-19T17:42:29.655Z,4.50
2018-02-19T17:44:57.221Z,4.50
2018-02-19T17:47:24.873Z,4.50
2018-02-19T17:49:52.442Z,4.60
2018-02-19T17:52:20.010Z,4.50
2018-02-19T17:54:47.574Z,4.50
2018-02-19T17:57:15.135Z,4.50
2018-02-19T17:59:42.717Z,4.50
2018-02-19T18:02:11.073Z,4.40
2018-02-19T18:04:38.661Z,4.40
2018-02-19T18:07:06.981Z,4.40
2018-02-19T18:09:34.532Z,4.40
2018-02-19T18:12:02.116Z,4.40
2018-02-19T18:14:29.664Z,4.40
2018-02-19T18:16:57.227Z,4.40
2018-02-19T18:19:24.877Z,4.40
2018-02-19T18:21:52.418Z,4.50
2018-02-19T18:24:19.990Z,4.40
2018-02-19T18:26:47.550Z,4.40
2018-02-19T18:29:15.098Z,4.40
2018-02-19T18:31:42.659Z,4.40
2018-02-19T18:34:11.082Z,4.40
2018-02-19T18:36:39.766Z,4.40
2018-02-19T18:39:07.343Z,4.40
2018-02-19T18:41:34.890Z,4.30
2018-02-19T18:44:02.458Z,4.30
2018-02-19T18:46:30.037Z,4.30
2018-02-19T18:48:57.690Z,4.30
2018-02-19T18:51:25.273Z,4.30
2018-02-19T18:53:53.612Z,4.30
2018-02-19T18:56:21.173Z,4.40
2018-02-19T18:58:48.722Z,4.30
2018-02-19T19:01:16.311Z,4.30
2018-02-19T19:03:43.884Z,4.40
2018-02-19T19:06:11.448Z,4.40
2018-02-19T19:08:51.630Z,4.30
2018-02-19T19:11:19.203Z,4.30
2018-02-19T19:13:46.777Z,4.30
2018-02-19T19:16:14.336Z,4.30
2018-02-19T19:18:41.888Z,4.30
2018-02-19T19:21:09.452Z,4.20
2018-02-19T19:23:37.143Z,4.20
2018-02-19T19:26:04.707Z,4.20
2018-02-19T19:28:32.363Z,4.20
2018-02-19T19:30:59.934Z,4.20
2018-02-19T19:33:27.516Z,4.20
2018-02-19T19:35:55.867Z,4.20
2018-02-19T19:38:23.440Z,4.10
2018-02-19T19:40:50.987Z,4.20
2018-02-19T19:43:18.553Z,4.20
2018-02-19T19:45:46.138Z,4.20
2018-02-19T19:48:14.478Z,4.20
2018-02-19T19:50:42.035Z,4.20
2018-02-19T19:53:09.607Z,4.20
2018-02-19T19:55:37.167Z,4.20
2018-02-19T19:58:04.730Z,4.20
2018-02-19T20:00:32.303Z,4.20
2018-02-19T20:02:59.866Z,4.20
2018-02-19T20:05:27.416Z,4.20
2018-02-19T20:07:54.993Z,4.20
2018-02-19T20:10:22.555Z,4.20
2018-02-19T20:12:50.910Z,4.20
2018-02-19T20:15:18.492Z,4.10
2018-02-19T20:17:46.823Z,4.10
2018-02-19T20:20:14.399Z,4.10
2018-02-19T20:22:42.092Z,4.10
2018-02-19T20:25:09.659Z,4.10
2018-02-19T20:27:37.993Z,4.10
2018-02-19T20:30:05.667Z,4.20
2018-02-19T20:32:33.334Z,4.10
2018-02-19T20:35:00.887Z,4.10
2018-02-19T20:37:28.451Z,4.10
2018-02-19T20:39:56.062Z,4.10
2018-02-19T20:42:24.395Z,4.10
2018-02-19T20:44:51.994Z,4.10
2018-02-19T20:47:20.301Z,4.10
2018-02-19T20:49:47.854Z,4.10
2018-02-19T20:52:15.439Z,4.10
2018-02-19T20:54:43.003Z,4.10
2018-02-19T20:57:10.581Z,4.10
2018-02-19T20:59:38.172Z,4.10
2018-02-19T21:02:06.525Z,4.10
2018-02-19T21:04:34.074Z,4.10
2018-02-19T21:07:01.637Z,4.10
2018-02-19T21:09:29.188Z,4.10
2018-02-19T21:11:56.896Z,4.10
2018-02-19T21:14:25.338Z,4.10
2018-02-19T21:16:52.894Z,4.10
2018-02-19T21:19:20.462Z,4.10
2018-02-19T21:21:48.026Z,4.10
2018-02-19T21:24:15.606Z,4.10
2018-02-19T21:26:43.931Z,4.20
2018-02-19T21:29:11.540Z,4.20
2018-02-19T21:31:39.078Z,4.20
2018-02-19T21:34:06.795Z,4.10
2018-02-19T21:36:34.365Z,4.20
2018-02-19T21:39:01.936Z,4.20
2018-02-19T21:41:29.488Z,4.20
2018-02-19T21:43:57.042Z,4.20
2018-02-19T21:46:24.726Z,4.20
2018-02-19T21:48:52.311Z,4.20
2018-02-19T21:51:19.866Z,4.20
2018-02-19T21:53:47.508Z,4.20
2018-02-19T21:56:15.076Z,4.20
2018-02-19T21:58:42.660Z,4.20
2018-02-19T22:01:10.206Z,4.20
2018-02-19T22:03:37.780Z,4.20
2018-02-19T22:06:05.450Z,4.20
2018-02-19T22:08:32.997Z,4.10
2018-02-19T22:11:00.660Z,4.10
2018-02-19T22:13:28.234Z,4.00
2018-02-19T22:15:55.901Z,4.10
2018-02-19T22:18:23.461Z,4.00
2018-02-19T22:20:51.201Z,4.00
2018-02-19T22:23:18.745Z,4.00
2018-02-19T22:25:46.289Z,3.90
2018-02-19T22:28:13.868Z,3.90
2018-02-19T22:30:41.537Z,3.90
2018-02-19T22:33:09.090Z,3.90
2018-02-19T22:35:36.696Z,3.90
2018-02-19T22:38:04.331Z,3.90
2018-02-19T22:40:31.882Z,3.90
2018-02-19T22:42:59.459Z,3.90
2018-02-19T22:45:27.028Z,3.90
2018-02-19T22:47:54.584Z,3.90
2018-02-19T22:50:22.246Z,3.90
2018-02-19T22:52:49.917Z,3.80
2018-02-19T22:55:17.484Z,3.90
2018-02-19T22:57:45.049Z,3.90
2018-02-19T23:00:13.609Z,3.90
2018-02-19T23:02:41.154Z,3.90
2018-02-19T23:05:08.717Z,3.80
2018-02-19T23:07:36.254Z,3.90
2018-02-19T23:10:03.811Z,3.80
2018-02-19T23:12:31.418Z,3.80
2018-02-19T23:14:58.970Z,3.80
2018-02-19T23:17:26.541Z,3.70
2018-02-19T23:19:54.120Z,3.60
2018-02-19T23:22:21.775Z,3.50
2018-02-19T23:24:49.321Z,3.50
2018-02-19T23:27:16.996Z,3.40
2018-02-19T23:29:44.551Z,3.40
2018-02-19T23:32:12.111Z,3.40
2018-02-19T23:34:39.685Z,3.40
2018-02-19T23:37:07.337Z,3.40
2018-02-19T23:39:34.890Z,3.40
2018-02-19T23:42:02.440Z,3.40
2018-02-19T23:44:30.028Z,3.40
2018-02-19T23:46:57.587Z,3.40
2018-02-19T23:49:25.136Z,3.30
2018-02-19T23:51:52.679Z,3.30
2018-02-19T23:54:20.237Z,3.30
2018-02-19T23:56:47.821Z,3.20
2018-02-19T23:59:15.389Z,3.20
